Time;durP1;ratioP1;P1;durP2;ratioP2;P2;SDS_P1;SDS_P2;PMS_P1;PMS_P2;Temp;Humidity;BMP_temperature;BMP_pressure;BME280_temperature;BME280_humidity;BME280_pressure;Samples;Min_cycle;Max_cycle;Signal;HPM_P1;HPM_P2
2024/02/05 00:00:40;;;;;;;0.00;0.00;;;6.60;74.10;;;;;;20683030;28;20141;-44
2024/02/05 00:10:41;;;;;;;0.47;0.00;;;6.90;73.10;;;;;;20682612;28;20150;-44
2024/02/05 00:20:43;;;;;;;0.10;0.10;;;7.20;72.80;;;;;;20682234;28;20084;-44
2024/02/05 00:30:51;;;;;;;0.30;0.10;;;7.10;71.90;;;;;;20681602;28;20044;-46
2024/02/05 00:40:53;;;;;;;0.50;0.10;;;7.20;71.20;;;;;;20683334;28;20045;-44
2024/02/05 00:50:54;;;;;;;0.30;0.10;;;7.30;71.30;;;;;;20679907;28;20040;-44
2024/02/05 01:00:57;;;;;;;0.32;0.00;;;7.10;72.50;;;;;;20679139;28;20068;-43
2024/02/05 01:10:59;;;;;;;0.38;0.10;;;6.60;75.10;;;;;;20680977;28;20443;-43
2024/02/05 01:21:00;;;;;;;0.17;0.00;;;6.40;75.30;;;;;;20677415;28;20060;-45
2024/02/05 01:31:05;;;;;;;0.47;0.10;;;6.30;75.80;;;;;;20677560;28;20081;-44
2024/02/05 01:41:10;;;;;;;0.10;0.00;;;6.30;76.50;;;;;;20677874;28;20388;-42
2024/02/05 01:51:15;;;;;;;0.30;0.00;;;6.20;75.70;;;;;;20676268;28;20096;-44
2024/02/05 02:01:18;;;;;;;0.20;0.00;;;6.60;73.20;;;;;;20674209;28;20190;-42
2024/02/05 02:11:20;;;;;;;0.30;0.00;;;6.90;72.30;;;;;;20675078;28;20045;-44
2024/02/05 02:21:25;;;;;;;0.05;0.00;;;6.80;73.10;;;;;;20674317;28;20158;-43
2024/02/05 02:31:32;;;;;;;0.28;0.10;;;7.20;72.60;;;;;;20674098;28;20122;-43
2024/02/05 02:41:39;;;;;;;0.08;0.00;;;7.40;71.20;;;;;;20675045;28;20087;-44
2024/02/05 02:51:41;;;;;;;0.45;0.03;;;8.30;68.90;;;;;;20673266;28;20073;-45
2024/02/05 03:01:43;;;;;;;0.57;0.10;;;8.70;68.60;;;;;;20672975;28;20646;-45
2024/02/05 03:11:45;;;;;;;0.17;0.00;;;8.30;69.00;;;;;;20672323;28;20680;-43
2024/02/05 03:21:47;;;;;;;0.10;0.03;;;8.00;70.70;;;;;;20687913;28;20093;-43
2024/02/05 03:31:48;;;;;;;0.20;0.00;;;8.20;68.70;;;;;;20686838;28;20072;-44
2024/02/05 03:41:50;;;;;;;0.00;0.00;;;8.20;69.30;;;;;;20685840;28;20041;-43
2024/02/05 03:51:52;;;;;;;0.32;0.00;;;7.80;70.50;;;;;;20682203;28;20688;-43
2024/02/05 04:01:53;;;;;;;0.80;0.00;;;7.30;69.90;;;;;;20685209;28;20091;-43
2024/02/05 04:11:55;;;;;;;0.10;0.00;;;6.80;73.90;;;;;;20684930;28;20086;-43
2024/02/05 04:21:57;;;;;;;0.10;0.00;;;6.40;75.10;;;;;;20506368;28;20077;-43
2024/02/05 04:32:00;;;;;;;0.08;0.00;;;6.20;75.70;;;;;;20506420;28;21772;-44
2024/02/05 04:42:02;;;;;;;0.10;0.00;;;7.00;72.90;;;;;;20509268;28;20140;-43
2024/02/05 04:52:04;;;;;;;0.20;0.00;;;7.00;72.30;;;;;;20565090;28;20119;-45
2024/02/05 05:02:06;;;;;;;0.20;0.00;;;7.80;69.90;;;;;;20601141;28;20075;-43
2024/02/05 05:12:08;;;;;;;0.15;0.00;;;7.50;71.90;;;;;;20598073;28;20080;-46
2024/02/05 05:22:09;;;;;;;0.03;0.00;;;7.10;71.50;;;;;;20647855;28;20162;-43
2024/02/05 05:32:11;;;;;;;0.00;0.00;;;7.00;72.70;;;;;;20676833;28;20049;-45
2024/02/05 05:42:13;;;;;;;0.30;0.10;;;6.70;72.30;;;;;;20677157;28;20037;-43
2024/02/05 05:52:15;;;;;;;0.25;0.00;;;6.60;72.20;;;;;;20676933;28;20069;-42
2024/02/05 06:02:16;;;;;;;0.10;0.00;;;6.50;72.40;;;;;;20677205;28;20684;-45
2024/02/05 06:12:18;;;;;;;0.00;0.00;;;6.80;73.10;;;;;;20674466;28;20094;-44
2024/02/05 06:22:20;;;;;;;0.00;0.00;;;7.20;71.70;;;;;;20675015;28;20149;-44
2024/02/05 06:32:22;;;;;;;0.05;0.00;;;7.40;71.60;;;;;;20674258;28;20077;-45
2024/02/05 06:42:24;;;;;;;0.10;0.00;;;7.60;72.20;;;;;;20674404;28;20095;-43
2024/02/05 06:52:25;;;;;;;0.35;0.00;;;7.40;73.60;;;;;;20685579;28;20135;-44
2024/02/05 07:02:27;;;;;;;0.03;0.00;;;7.40;72.90;;;;;;20683499;28;20091;-43
2024/02/05 07:12:29;;;;;;;0.25;0.00;;;7.40;73.50;;;;;;20683231;28;20072;-45
2024/02/05 07:22:31;;;;;;;0.30;0.00;;;7.60;72.60;;;;;;20681616;28;20045;-44
2024/02/05 07:32:33;;;;;;;0.17;0.00;;;8.60;69.70;;;;;;20684489;28;20089;-43
2024/02/05 07:42:35;;;;;;;0.10;0.00;;;9.10;70.60;;;;;;20683136;28;20045;-48
2024/02/05 07:52:37;;;;;;;0.13;0.00;;;9.10;69.20;;;;;;20680894;28;20773;-45
2024/02/05 08:02:39;;;;;;;0.00;0.00;;;10.00;67.10;;;;;;20678646;28;20138;-45
2024/02/05 08:12:40;;;;;;;1.50;0.00;;;11.20;65.70;;;;;;20679087;28;20076;-46
2024/02/05 08:22:45;;;;;;;0.13;0.00;;;11.90;63.50;;;;;;20681909;28;20118;-44
2024/02/05 08:32:47;;;;;;;0.15;0.05;;;12.50;62.50;;;;;;20674695;28;20093;-47
2024/02/05 08:42:49;;;;;;;0.00;0.00;;;13.10;62.20;;;;;;20658085;28;21189;-48
2024/02/05 08:52:51;;;;;;;0.85;0.00;;;13.70;59.90;;;;;;20677206;28;20068;-47
2024/02/05 09:02:55;;;;;;;0.10;0.00;;;14.10;59.50;;;;;;20675316;28;20222;-45
2024/02/05 09:12:57;;;;;;;0.85;0.10;;;14.40;58.80;;;;;;20673209;28;20374;-46
2024/02/05 09:22:59;;;;;;;0.30;0.00;;;14.70;58.60;;;;;;20672407;28;20116;-45
2024/02/05 09:33:02;;;;;;;0.25;0.03;;;14.80;56.90;;;;;;20676606;28;20072;-45
2024/02/05 09:43:05;;;;;;;0.10;0.05;;;15.00;57.30;;;;;;20675519;28;20065;-45
2024/02/05 09:53:09;;;;;;;1.65;0.00;;;15.40;56.30;;;;;;20668275;28;20130;-45
2024/02/05 10:03:12;;;;;;;0.03;0.00;;;15.50;56.60;;;;;;20671746;28;20081;-45
2024/02/05 10:13:17;;;;;;;0.15;0.15;;;16.00;56.20;;;;;;20674392;28;20131;-48
2024/02/05 10:23:19;;;;;;;0.47;0.10;;;16.10;55.50;;;;;;20663612;28;20081;-48
2024/02/05 10:33:23;;;;;;;0.47;0.00;;;16.50;55.00;;;;;;20685587;28;20084;-48
2024/02/05 10:43:27;;;;;;;0.10;0.00;;;16.50;54.90;;;;;;20683963;28;20064;-46
2024/02/05 10:53:30;;;;;;;1.60;1.10;;;16.60;54.40;;;;;;20674528;28;20162;-49
2024/02/05 11:03:37;;;;;;;1.52;0.80;;;17.60;61.80;;;;;;20686534;28;20065;-47
2024/02/05 11:13:49;;;;;;;1.23;0.82;;;18.10;60.30;;;;;;20680161;28;20095;-45
2024/02/05 11:23:53;;;;;;;1999.90;999.90;;;18.20;58.60;;;;;;20683612;28;21002;-46
2024/02/05 11:34:01;;;;;;;1.30;0.70;;;18.40;59.80;;;;;;20679788;28;20081;-45
2024/02/05 11:44:10;;;;;;;2.08;1.10;;;18.40;59.40;;;;;;20682533;28;20114;-47
2024/02/05 11:54:12;;;;;;;3.17;2.30;;;18.30;58.80;;;;;;20681239;28;20472;-46
2024/02/05 12:04:14;;;;;;;5.90;4.63;;;18.50;61.00;;;;;;20682188;28;20033;-49
2024/02/05 12:14:17;;;;;;;5.95;4.60;;;18.50;62.70;;;;;;20678567;28;20078;-51
2024/02/05 12:24:18;;;;;;;5.68;4.43;;;18.30;61.90;;;;;;20677140;28;20134;-46
2024/02/05 12:34:20;;;;;;;5.43;4.50;;;18.50;60.90;;;;;;20672576;28;20828;-49
2024/02/05 12:44:22;;;;;;;7.25;4.47;;;18.30;61.00;;;;;;20674450;28;20036;-48
2024/02/05 12:54:24;;;;;;;22.15;14.95;;;18.20;60.20;;;;;;20674328;28;21253;-46
2024/02/05 13:04:26;;;;;;;10.57;3.63;;;18.10;63.40;;;;;;20678458;28;20126;-46
2024/02/05 13:14:29;;;;;;;4.10;3.00;;;17.90;59.40;;;;;;20669855;28;21269;-48
2024/02/05 13:24:31;;;;;;;11.07;7.32;;;17.90;59.50;;;;;;20664642;28;20134;-46
2024/02/05 13:34:37;;;;;;;13.70;9.98;;;17.50;61.10;;;;;;20673585;28;21273;-47
2024/02/05 13:44:39;;;;;;;38.80;27.08;;;17.00;60.80;;;;;;20672417;28;20126;-45
2024/02/05 13:54:41;;;;;;;33.45;23.92;;;16.50;66.50;;;;;;20672210;28;20230;-48
2024/02/05 14:04:49;;;;;;;24.73;16.45;;;15.60;66.90;;;;;;20674354;28;20033;-48
2024/02/05 14:14:51;;;;;;;23.35;16.05;;;14.70;65.20;;;;;;20669923;28;21125;-46
2024/02/05 14:24:53;;;;;;;26.15;16.95;;;14.20;66.40;;;;;;20668528;28;20057;-48
2024/02/05 14:34:55;;;;;;;25.88;16.45;;;14.00;66.20;;;;;;20672379;28;20557;-45
2024/02/05 14:44:58;;;;;;;11.15;7.68;;;13.70;66.60;;;;;;20672668;28;20037;-46
2024/02/05 14:55:00;;;;;;;24.67;16.63;;;13.40;64.50;;;;;;20668541;28;20102;-45
2024/02/05 15:05:04;;;;;;;31.00;21.13;;;13.20;66.80;;;;;;20666694;28;20485;-52
2024/02/05 15:15:08;;;;;;;28.88;19.05;;;12.80;69.50;;;;;;20686681;28;20170;-50
2024/02/05 15:25:09;;;;;;;7.40;4.78;;;12.30;70.90;;;;;;20681667;28;20045;-55
2024/02/05 15:35:11;;;;;;;0.50;0.30;;;11.90;68.60;;;;;;20664889;28;20103;-54
2024/02/05 15:45:16;;;;;;;0.40;0.20;;;11.40;68.30;;;;;;20678938;28;20090;-52
2024/02/05 15:55:18;;;;;;;0.10;0.08;;;10.60;69.90;;;;;;20673745;28;20068;-48
2024/02/05 16:05:20;;;;;;;0.85;0.13;;;9.90;70.10;;;;;;20676018;28;20652;-45
2024/02/05 16:15:22;;;;;;;0.22;0.10;;;9.40;71.00;;;;;;20673850;28;21033;-54
2024/02/05 16:25:26;;;;;;;0.30;0.10;;;8.90;72.20;;;;;;20674796;28;20072;-41
2024/02/05 16:35:28;;;;;;;0.35;0.10;;;8.50;72.40;;;;;;20675095;28;20108;-41
2024/02/05 16:45:32;;;;;;;0.40;0.10;;;8.00;73.30;;;;;;20656706;28;20595;-41
2024/02/05 16:55:34;;;;;;;0.63;0.10;;;7.60;73.90;;;;;;20674494;28;21008;-44
2024/02/05 17:05:36;;;;;;;0.10;0.00;;;7.30;74.50;;;;;;20679874;28;20593;-41
2024/02/05 17:15:40;;;;;;;0.20;0.10;;;7.30;74.40;;;;;;20678013;28;20680;-42
2024/02/05 17:25:46;;;;;;;0.63;0.20;;;7.10;74.20;;;;;;20673368;28;20138;-42
2024/02/05 17:35:50;;;;;;;0.38;0.10;;;7.10;73.60;;;;;;20672734;28;20797;-42
2024/02/05 17:45:51;;;;;;;0.43;0.10;;;7.20;74.20;;;;;;20672651;28;20064;-41
2024/02/05 17:55:56;;;;;;;2.00;0.30;;;6.80;74.70;;;;;;20669057;28;20099;-41
2024/02/05 18:05:59;;;;;;;0.32;0.10;;;6.50;75.00;;;;;;20672904;28;20572;-41
2024/02/05 18:16:01;;;;;;;1.67;0.10;;;6.40;76.40;;;;;;20668307;28;21079;-43
2024/02/05 18:26:02;;;;;;;0.50;0.10;;;6.50;76.80;;;;;;20670085;28;20091;-41
2024/02/05 18:36:09;;;;;;;3.78;0.10;;;6.10;78.60;;;;;;20650705;28;20076;-40
2024/02/05 18:46:11;;;;;;;0.35;0.25;;;6.10;78.50;;;;;;20665787;28;20115;-44
2024/02/05 18:56:13;;;;;;;0.60;0.30;;;5.90;77.70;;;;;;20684269;28;20154;-42
2024/02/05 19:06:15;;;;;;;0.55;0.20;;;5.70;78.50;;;;;;20669743;28;20507;-41
2024/02/05 19:16:19;;;;;;;0.20;0.10;;;5.50;78.50;;;;;;20677920;28;20142;-42
2024/02/05 19:26:22;;;;;;;0.35;0.10;;;5.60;79.10;;;;;;20685011;28;21269;-44
2024/02/05 19:36:23;;;;;;;0.57;0.10;;;5.20;80.30;;;;;;20685037;28;20076;-41
2024/02/05 19:46:31;;;;;;;0.20;0.10;;;5.00;80.40;;;;;;20682126;28;20590;-43
2024/02/05 19:56:33;;;;;;;0.40;0.20;;;5.10;79.70;;;;;;20683038;28;20076;-41
2024/02/05 20:06:36;;;;;;;0.32;0.20;;;5.00;80.00;;;;;;20676310;28;20053;-43
2024/02/05 20:16:38;;;;;;;3.80;0.00;;;4.50;82.70;;;;;;20681156;28;20118;-41
2024/02/05 20:26:39;;;;;;;1.80;0.10;;;4.40;81.30;;;;;;20647010;28;20122;-41
2024/02/05 20:36:41;;;;;;;0.32;0.10;;;4.50;80.60;;;;;;20662091;28;20056;-43
2024/02/05 20:46:43;;;;;;;0.70;0.30;;;4.60;80.50;;;;;;20656209;28;20688;-48
2024/02/05 20:56:45;;;;;;;0.17;0.00;;;4.00;81.70;;;;;;20673521;28;21438;-47
2024/02/05 21:06:48;;;;;;;6.20;2.78;;;3.60;84.00;;;;;;20655914;28;20071;-47
2024/02/05 21:16:51;;;;;;;2.88;1.48;;;4.00;84.00;;;;;;20642164;28;20041;-41
2024/02/05 21:26:52;;;;;;;45.20;22.45;;;3.60;85.40;;;;;;20674020;28;21185;-42
2024/02/05 21:36:54;;;;;;;5.45;3.10;;;3.30;92.60;;;;;;20673013;28;20072;-41
2024/02/05 21:46:56;;;;;;;18.63;8.63;;;3.00;90.00;;;;;;20660341;28;20060;-43
2024/02/05 21:56:58;;;;;;;15.65;8.40;;;3.00;90.90;;;;;;20654187;28;21194;-43
2024/02/05 22:07:00;;;;;;;2.53;1.23;;;2.80;91.10;;;;;;20675042;28;20041;-41
2024/02/05 22:17:02;;;;;;;57.30;28.33;;;2.40;91.30;;;;;;20655935;28;20134;-40
2024/02/05 22:27:04;;;;;;;71.40;36.08;;;2.30;96.30;;;;;;20675369;28;20077;-41
2024/02/05 22:37:06;;;;;;;3.13;1.35;;;2.20;96.00;;;;;;20672291;28;20076;-40
2024/02/05 22:47:08;;;;;;;83.25;40.45;;;1.90;92.50;;;;;;20675185;28;21241;-40
2024/02/05 22:57:12;;;;;;;116.45;52.35;;;1.70;98.60;;;;;;20653886;28;20564;-41
2024/02/05 23:07:14;;;;;;;288.38;89.30;;;1.10;99.90;;;;;;20671513;28;20065;-42
2024/02/05 23:17:16;;;;;;;271.77;92.22;;;1.00;99.90;;;;;;20673079;28;20068;-41
2024/02/05 23:27:17;;;;;;;207.68;81.72;;;0.80;99.90;;;;;;20677188;28;20037;-41
2024/02/05 23:37:20;;;;;;;198.50;80.03;;;0.70;99.90;;;;;;20681666;28;20106;-41
2024/02/05 23:47:22;;;;;;;618.35;118.07;;;0.60;99.90;;;;;;20665511;28;20974;-43
2024/02/05 23:57:24;;;;;;;233.73;85.32;;;0.90;99.90;;;;;;20651290;28;20069;-40
